EZY982 EGJJ-EGMC
Flight info
| Callsign | EZY982 |
|---|---|
| Flight time | N/A |
| Altitude | 19000 |
| Route | BENIX G27 NEVIL |
| Aircraft | A320/M-SDE2E3FGHIRWXY/LB1 |
Departure
| Time | 2026-05-05 19:21 |
|---|---|
| Airport | Jersey Airport (EGJJ) |
Arrival
| Time | N/A |
|---|---|
| Airport | London Southend Airport (EGMC) |
| Time | Latitude | Longitude | Altitude | Speed | Heading |
|---|---|---|---|---|---|
| 2026-05-05 18:54 | 49.20486 | -2.19844 | 281 ft | 0 kts | 351° |
| 2026-05-05 19:11 | 49.20481 | -2.19843 | 280 ft | 3 kts | 351° |
| 2026-05-05 19:11 | 49.20477 | -2.19842 | 280 ft | 4 kts | 351° |
| 2026-05-05 19:11 | 49.20451 | -2.19835 | 280 ft | 3 kts | 342° |
| 2026-05-05 19:11 | 49.20430 | -2.19816 | 286 ft | 3 kts | 287° |
| 2026-05-05 19:12 | 49.20428 | -2.19804 | 285 ft | 0 kts | 283° |
| 2026-05-05 19:16 | 49.20429 | -2.19810 | 285 ft | 2 kts | 283° |
| 2026-05-05 19:16 | 49.20433 | -2.19857 | 284 ft | 7 kts | 277° |
| 2026-05-05 19:16 | 49.20472 | -2.19919 | 280 ft | 10 kts | 352° |
| 2026-05-05 19:17 | 49.20555 | -2.19931 | 280 ft | 13 kts | 355° |
| 2026-05-05 19:17 | 49.20605 | -2.19849 | 280 ft | 12 kts | 81° |
| 2026-05-05 19:17 | 49.20611 | -2.19773 | 280 ft | 0 kts | 82° |
| 2026-05-05 19:17 | 49.20614 | -2.19744 | 280 ft | 5 kts | 82° |
| 2026-05-05 19:18 | 49.20635 | -2.19679 | 280 ft | 9 kts | 43° |
| 2026-05-05 19:18 | 49.20689 | -2.19596 | 280 ft | 13 kts | 68° |
| 2026-05-05 19:18 | 49.20709 | -2.19436 | 281 ft | 17 kts | 83° |
| 2026-05-05 19:18 | 49.20686 | -2.19258 | 281 ft | 18 kts | 101° |
| 2026-05-05 19:19 | 49.20689 | -2.19048 | 281 ft | 21 kts | 83° |
| 2026-05-05 19:19 | 49.20707 | -2.18817 | 281 ft | 21 kts | 85° |
| 2026-05-05 19:19 | 49.20721 | -2.18611 | 284 ft | 16 kts | 82° |
| 2026-05-05 19:19 | 49.20738 | -2.18463 | 285 ft | 11 kts | 69° |
| 2026-05-05 19:20 | 49.20798 | -2.18390 | 283 ft | 12 kts | 22° |
| 2026-05-05 19:20 | 49.20881 | -2.18414 | 278 ft | 14 kts | 312° |
| 2026-05-05 19:20 | 49.20882 | -2.18546 | 279 ft | 0 kts | 265° |
| 2026-05-05 19:20 | 49.20852 | -2.18922 | 280 ft | 77 kts | 263° |
| 2026-05-05 19:21 | 49.20754 | -2.20094 | 279 ft | 142 kts | 263° |
| 2026-05-05 19:21 | 49.20671 | -2.21760 | 686 ft | 155 kts | 270° |
| 2026-05-05 19:21 | 49.20633 | -2.23379 | 1488 ft | 153 kts | 272° |
| 2026-05-05 19:21 | 49.20512 | -2.25082 | 1870 ft | 172 kts | 262° |
| 2026-05-05 19:22 | 49.20025 | -2.26900 | 2118 ft | 199 kts | 241° |
| 2026-05-05 19:22 | 49.19001 | -2.28531 | 2368 ft | 230 kts | 214° |
| 2026-05-05 19:22 | 49.17426 | -2.29390 | 2723 ft | 254 kts | 183° |
| 2026-05-05 19:22 | 49.15650 | -2.28865 | 3192 ft | 269 kts | 148° |
| 2026-05-05 19:23 | 49.14316 | -2.26928 | 3999 ft | 266 kts | 115° |
| 2026-05-05 19:23 | 49.13861 | -2.24269 | 4898 ft | 258 kts | 83° |
| 2026-05-05 19:23 | 49.14262 | -2.21615 | 5759 ft | 258 kts | 70° |
| 2026-05-05 19:23 | 49.14693 | -2.18925 | 6594 ft | 265 kts | 78° |
| 2026-05-05 19:24 | 49.14835 | -2.16090 | 7371 ft | 272 kts | 89° |
| 2026-05-05 19:24 | 49.14644 | -2.13183 | 8175 ft | 278 kts | 95° |
| 2026-05-05 19:24 | 49.14388 | -2.10238 | 8990 ft | 282 kts | 95° |
| 2026-05-05 19:24 | 49.14124 | -2.07246 | 9800 ft | 286 kts | 95° |
| 2026-05-05 19:25 | 49.13848 | -2.04165 | 10249 ft | 304 kts | 96° |
| 2026-05-05 19:25 | 49.13393 | -2.00893 | 10533 ft | 325 kts | 104° |
| 2026-05-05 19:25 | 49.12722 | -1.97551 | 11153 ft | 332 kts | 101° |
| 2026-05-05 19:25 | 49.12347 | -1.94069 | 11880 ft | 334 kts | 94° |
| 2026-05-05 19:26 | 49.12488 | -1.90559 | 12589 ft | 333 kts | 70° |
| 2026-05-05 19:26 | 49.13663 | -1.87550 | 13289 ft | 334 kts | 43° |
| 2026-05-05 19:26 | 49.15510 | -1.85392 | 13981 ft | 336 kts | 33° |
| 2026-05-05 19:26 | 49.17452 | -1.83377 | 14621 ft | 339 kts | 33° |
| 2026-05-05 19:27 | 49.19413 | -1.81344 | 15267 ft | 342 kts | 34° |
| 2026-05-05 19:27 | 49.21454 | -1.79457 | 15894 ft | 345 kts | 27° |
| 2026-05-05 19:27 | 49.23594 | -1.77868 | 16516 ft | 348 kts | 26° |